Sign-in with your pilot id or email, or register

ICAO: OIII Name / Country: MEHRABAD INTL / Iran
Latitude: 35.6892 Longitude: 51.3134
Total Arrivals:
Strict Standards: Non-static method AirportData::getarrflights() should not be called statically, assuming $this from incompatible context in /var/www/customers/vh-7192/web/home/phpvms/core/templates/airport_info.tpl on line 18
2
Total Departures:
Strict Standards: Non-static method AirportData::getdeptflights() should not be called statically, assuming $this from incompatible context in /var/www/customers/vh-7192/web/home/phpvms/core/templates/airport_info.tpl on line 21
0
Latest Arrival: MTA11P (LHBP-OIII) Tibor Berces Latest Departure: (-)
Metar: OIII 151830Z 24008KT 9999 FEW040 SCT100 38/04 Q1011 A2986
More info

Charts for OIII


NOTAM


Warning: file_get_contents(http://api.vateud.net/notams/OIII.json): failed to open stream: Redirection limit reached, aborting in /var/www/customers/vh-7192/web/home/phpvms/core/common/NOTAMSData.class.php on line 18

Warning: Invalid argument supplied for foreach() in /var/www/customers/vh-7192/web/home/phpvms/core/common/NOTAMSData.class.php on line 22

MEHRABAD INTL